Thunder radar more information blitzortung!


Radar de pluja more information rain snow radar


Visita la nostra xarxa de llocs de meteo:

Template documentation
and downloads

And another site



No particular awareness of the weather is required.    There are no Weather-warnings

Pagina Historial Weather Underground text

Diari Resum May 23, 2017 Unitats:  Imperial    Mètric   Tant
« Previous Dia
SegĂźent Dia »
Diari Setmana Mensual Anual Personalitzada
  Maxima: Minima: Media:
Temperatura: 86.5 °F 57.4 °F 74.5 °F
Punt de rosada: 60.4 °F 49.3 °F 53.4 °F
Humitat: 80 % 34 % 50 %
Wind Speed: 12.7 mph 0 mph 3.9 mph
RĂ fegues de vent: 12.7 mph - -
Vent:- - SSW
Pression baro: 30.2 in 30 in -
Precipitacions: 0 in    
Historical Graphs
 
 
Dades de taula per May 23, 2017
Temps Temperatura Punt de rosada Pression baro Vent Wind Speed RĂ fegues de vent Humitat Rainfall Rate (Hourly)
00:00 64.2 °F 50.9 °F 30.1 in NE 1.2 mph 1.2 mph 62 % 0 in
00:05 64 °F 50.7 °F 30.1 in Calm     62 % 0 in
00:10 63.7 °F 50.4 °F 30.1 in SW 1.2 mph 1.2 mph 62 % 0 in
00:15 59.5 °F 53.1 °F 30.1 in Calm     79 % 0 in
00:25 59.4 °F 52.9 °F 30.1 in Calm     79 % 0 in
00:35 58.6 °F 51.8 °F 30.1 in South 1 mph 2 mph 78 % 0 in
00:45 57.9 °F 51.1 °F 30.1 in SW 2 mph 3 mph 78 % 0 in
00:55 57.6 °F 51.1 °F 30.1 in SW 2 mph 4 mph 79 % 0 in
01:05 58.1 °F 51.6 °F 30.1 in WSW 1 mph 2 mph 79 % 0 in
01:15 58.1 °F 52 °F 30.1 in Calm   2 mph 80 % 0 in
01:25 57.7 °F 51.6 °F 30.2 in Calm   2 mph 80 % 0 in
01:35 57.7 °F 51.6 °F 30.2 in Calm   2 mph 80 % 0 in
01:45 57.4 °F 50.9 °F 30.2 in WSW 2 mph 2 mph 79 % 0 in
01:55 57.6 °F 51.1 °F 30.2 in WSW 1 mph 3 mph 79 % 0 in
02:05 57.6 °F 51.4 °F 30.2 in SW 1 mph 2 mph 80 % 0 in
02:15 57.7 °F 51.6 °F 30.2 in SW 1 mph 2 mph 80 % 0 in
02:25 58.5 °F 52 °F 30.2 in WSW 2 mph 2 mph 79 % 0 in
02:35 59.4 °F 52.9 °F 30.2 in SW 2 mph 2 mph 79 % 0 in
02:45 60.1 °F 53.2 °F 30.2 in SW 1 mph 2 mph 78 % 0 in
02:55 60.6 °F 53.4 °F 30.2 in SW 2 mph 2 mph 77 % 0 in
03:05 61.3 °F 54.1 °F 30.2 in SW 2 mph 2 mph 77 % 0 in
03:15 62.1 °F 54.3 °F 30.2 in SW 1 mph 2 mph 76 % 0 in
03:25 62.8 °F 54.7 °F 30.2 in SW 1 mph 2 mph 75 % 0 in
03:35 64.2 °F 55.8 °F 30.2 in Calm   3 mph 74 % 0 in
03:45 65.1 °F 56.1 °F 30.2 in SSW 1 mph 2 mph 73 % 0 in
03:55 66.6 °F 56.8 °F 30.2 in NE 1 mph 3 mph 71 % 0 in
04:05 66.9 °F 56.5 °F 30.2 in East 1 mph 2 mph 69 % 0 in
04:15 67.6 °F 56.3 °F 30.2 in ESE 2 mph 4 mph 67 % 0 in
04:25 68.2 °F 56.5 °F 30.2 in East 1 mph 3 mph 66 % 0 in
04:35 70 °F 57.7 °F 30.2 in East 1 mph 2 mph 65 % 0 in
04:45 70.2 °F 57.4 °F 30.2 in Calm   3 mph 64 % 0 in
04:55 71.6 °F 57.4 °F 30.2 in SSW 2 mph 3 mph 61 % 0 in
05:05 72.3 °F 57.7 °F 30.2 in SSW 2 mph 3 mph 60 % 0 in
05:15 73 °F 57.9 °F 30.2 in SW 1 mph 3 mph 59 % 0 in
05:25 73.9 °F 58.6 °F 30.2 in SSW 1 mph 2 mph 59 % 0 in
05:35 74.7 °F 58.5 °F 30.2 in ENE 3 mph 3 mph 57 % 0 in
05:45 75.7 °F 58.8 °F 30.2 in NE 2 mph 2 mph 56 % 0 in
10:49 76.5 °F 58.6 °F 30.2 in SSW 3.3 mph 3.3 mph 54 % 0 in
10:54 77.4 °F 58.8 °F 30.2 in SW 2.3 mph 2.3 mph 53 % 0 in
10:59 77.2 °F 58.3 °F 30.2 in SE 2.3 mph 2.3 mph 52 % 0 in
11:04 78.4 °F 59.4 °F 30.2 in SW 2.3 mph 2.3 mph 52 % 0 in
11:09 78.1 °F 57.9 °F 30.2 in ESE 3.5 mph 3.5 mph 50 % 0 in
11:14 78.8 °F 59.2 °F 30.2 in WSW 2.3 mph 2.3 mph 51 % 0 in
11:19 77.9 °F 58.3 °F 30.2 in WSW 5.8 mph 5.8 mph 51 % 0 in
11:24 77.9 °F 58.3 °F 30.2 in SW 5.8 mph 5.8 mph 51 % 0 in
11:29 78.4 °F 58.3 °F 30.2 in WNW 4.6 mph 4.6 mph 50 % 0 in
11:34 79.7 °F 59.4 °F 30.2 in WSW 3.5 mph 3.5 mph 50 % 0 in
11:39 79.3 °F 59.2 °F 30.2 in SW 4.6 mph 4.6 mph 50 % 0 in
11:44 79.7 °F 58.8 °F 30.2 in WSW 3.5 mph 3.5 mph 49 % 0 in
11:49 80.8 °F 59.4 °F 30.2 in ESE 2.3 mph 2.3 mph 48 % 0 in
11:54 81.3 °F 59.2 °F 30.2 in South 3.5 mph 3.5 mph 47 % 0 in
11:59 81 °F 58.8 °F 30.2 in North 3.5 mph 3.5 mph 47 % 0 in
12:04 81.7 °F 58.8 °F 30.2 in SW 2.3 mph 2.3 mph 46 % 0 in
12:09 81.3 °F 58.6 °F 30.2 in SW 4.6 mph 4.6 mph 46 % 0 in
12:14 81.9 °F 59.2 °F 30.2 in West 2.3 mph 2.3 mph 46 % 0 in
12:19 83.3 °F 60.4 °F 30.2 in WNW 4.6 mph 4.6 mph 46 % 0 in
12:24 83.8 °F 60.3 °F 30.1 in ESE 1.4 mph 1.4 mph 45 % 0 in
12:29 83.7 °F 60.1 °F 30.1 in South 2.3 mph 2.3 mph 45 % 0 in
12:34 84.6 °F 59.5 °F 30.1 in SSW 2.3 mph 2.3 mph 43 % 0 in
12:35 84.6 °F 59.5 °F 30.1 in SSE 2.3 mph 2.3 mph 43 % 0 in
12:40 84.7 °F 59.7 °F 30.1 in SW 2.3 mph 2.3 mph 43 % 0 in
12:45 84.7 °F 57.7 °F 30.1 in SSW 6.9 mph 6.9 mph 40 % 0 in
12:50 84.2 °F 57.4 °F 30.1 in East 3.5 mph 3.5 mph 40 % 0 in
12:55 83.5 °F 57.9 °F 30.1 in South 2.3 mph 2.3 mph 42 % 0 in
13:00 84.7 °F 58.5 °F 30.1 in West 4.6 mph 4.6 mph 41 % 0 in
13:05 85.6 °F 59.2 °F 30.1 in West 3.5 mph 3.5 mph 41 % 0 in
13:10 84.7 °F 57.7 °F 30.1 in WSW 4.6 mph 4.6 mph 40 % 0 in
13:15 84.2 °F 56.7 °F 30.1 in WSW 3.5 mph 3.5 mph 39 % 0 in
13:20 83.8 °F 56.1 °F 30.1 in ENE 2.3 mph 2.3 mph 39 % 0 in
13:25 82.6 °F 55 °F 30.1 in East 4.6 mph 4.6 mph 39 % 0 in
13:30 82.9 °F 56.1 °F 30.1 in ENE 4.6 mph 4.6 mph 40 % 0 in
13:35 84.2 °F 56.7 °F 30.1 in SW 2.3 mph 2.3 mph 39 % 0 in
13:37 84.4 °F 56.7 °F 30.1 in SW 5.8 mph 5.8 mph 39 % 0 in
13:42 85.6 °F 57 °F 30.1 in SW 6.2 mph 6.2 mph 38 % 0 in
13:47 85.8 °F 56.5 °F 30.1 in WSW 5.8 mph 5.8 mph 37 % 0 in
13:52 86 °F 56.7 °F 30.1 in SW 3.6 mph 3.6 mph 37 % 0 in
13:57 85.8 °F 56.5 °F 30.1 in WSW 4.6 mph 4.6 mph 37 % 0 in
14:02 85.1 °F 55.9 °F 30.1 in NW 3.5 mph 3.5 mph 37 % 0 in
14:07 84.9 °F 55 °F 30.1 in SE 4.6 mph 4.6 mph 36 % 0 in
14:12 86.2 °F 55.2 °F 30.1 in ESE 3.8 mph 3.8 mph 35 % 0 in
14:17 84.2 °F 52.9 °F 30.1 in ESE 6.2 mph 6.2 mph 34 % 0 in
14:22 83.5 °F 53.8 °F 30.1 in South 6.9 mph 6.9 mph 36 % 0 in
14:27 85.5 °F 54 °F 30.1 in SSW 4.6 mph 4.6 mph 34 % 0 in
14:32 86 °F 54.3 °F 30.1 in NW 3.5 mph 3.5 mph 34 % 0 in
14:37 85.3 °F 55.2 °F 30.1 in ESE 9.2 mph 9.2 mph 36 % 0 in
14:42 83.5 °F 53.8 °F 30.1 in NE 5.8 mph 5.8 mph 36 % 0 in
14:47 83.5 °F 55.2 °F 30.1 in ENE 11.5 mph 11.5 mph 38 % 0 in
14:52 83.1 °F 54.9 °F 30.1 in East 10.7 mph 10.7 mph 38 % 0 in
14:57 83.7 °F 55.4 °F 30.1 in SE 2.3 mph 2.3 mph 38 % 0 in
15:02 82.9 °F 54.7 °F 30.1 in SE 4.6 mph 4.6 mph 38 % 0 in
15:07 83.3 °F 55 °F 30.1 in SSW 5.8 mph 5.8 mph 38 % 0 in
15:12 83.7 °F 55.4 °F 30.1 in NE 3.5 mph 3.5 mph 38 % 0 in
15:17 83.1 °F 54.9 °F 30.1 in ESE 2.3 mph 2.3 mph 38 % 0 in
15:22 83.5 °F 55.2 °F 30.1 in SW 3.5 mph 3.5 mph 38 % 0 in
15:27 85.5 °F 56.1 °F 30.1 in SW 6.7 mph 6.7 mph 37 % 0 in
15:32 85.8 °F 56.5 °F 30.1 in South 10.4 mph 10.4 mph 37 % 0 in
15:37 86.5 °F 55.6 °F 30.1 in SSE 9.2 mph 9.2 mph 35 % 0 in
15:42 86 °F 55.2 °F 30.1 in SSW 7.1 mph 7.1 mph 35 % 0 in
15:47 86.4 °F 55.6 °F 30.1 in SSW 9.2 mph 9.2 mph 35 % 0 in
15:52 86.2 °F 55.2 °F 30.1 in South 6.9 mph 6.9 mph 35 % 0 in
15:57 85.6 °F 55.6 °F 30.1 in SSE 12.7 mph 12.7 mph 36 % 0 in
16:02 85.6 °F 54.9 °F 30.1 in SW 10.4 mph 10.4 mph 35 % 0 in
16:07 85.3 °F 55.2 °F 30.1 in WSW 9.2 mph 9.2 mph 36 % 0 in
16:12 84.6 °F 54 °F 30.1 in South 9.2 mph 9.2 mph 35 % 0 in
16:17 84.7 °F 54.1 °F 30.1 in SSW 10.4 mph 10.4 mph 35 % 0 in
16:22 84.2 °F 53.6 °F 30.1 in South 9.2 mph 9.2 mph 35 % 0 in
16:27 84.2 °F 53.6 °F 30.1 in WSW 8.5 mph 8.5 mph 35 % 0 in
16:32 84.2 °F 53.6 °F 30.1 in SW 8.1 mph 8.1 mph 35 % 0 in
16:37 84.2 °F 53.6 °F 30.1 in South 5.8 mph 5.8 mph 35 % 0 in
16:42 84.2 °F 53.6 °F 30.1 in SW 4.6 mph 4.6 mph 35 % 0 in
16:47 84.6 °F 54 °F 30.1 in SW 6.4 mph 6.4 mph 35 % 0 in
16:52 84.2 °F 53.6 °F 30.1 in SW 7.8 mph 7.8 mph 35 % 0 in
16:57 83.7 °F 54 °F 30.1 in WSW 9.2 mph 9.2 mph 36 % 0 in
17:02 83.7 °F 53.1 °F 30.1 in West 5.8 mph 5.8 mph 35 % 0 in
17:07 83.3 °F 52.9 °F 30.1 in SW 6.9 mph 6.9 mph 35 % 0 in
17:12 83.1 °F 52.5 °F 30.1 in WSW 9.2 mph 9.2 mph 35 % 0 in
17:17 83.3 °F 53.6 °F 30.1 in WNW 5.8 mph 5.8 mph 36 % 0 in
17:18 83.1 °F 53.4 °F 30.1 in SW 5.8 mph 5.8 mph 36 % 0 in
17:23 82.4 °F 52 °F 30.1 in WSW 9.2 mph 9.2 mph 35 % 0 in
17:28 81.7 °F 51.4 °F 30.1 in SSW 8.1 mph 8.1 mph 35 % 0 in
17:33 81.7 °F 52.2 °F 30.1 in WSW 8.1 mph 8.1 mph 36 % 0 in
17:34 81.7 °F 52.2 °F 30.1 in SSW 8.1 mph 8.1 mph 36 % 0 in
17:39 81.5 °F 51.3 °F 30.1 in SSW 10.4 mph 10.4 mph 35 % 0 in
17:44 81.5 °F 51.3 °F 30.1 in WSW 8.1 mph 8.1 mph 35 % 0 in
17:49 81.1 °F 51.6 °F 30.1 in SSW 10.4 mph 10.4 mph 36 % 0 in
17:54 81.5 °F 52 °F 30.1 in SW 5.8 mph 5.8 mph 36 % 0 in
17:59 81.7 °F 52.2 °F 30.1 in SSW 6.9 mph 6.9 mph 36 % 0 in
18:04 81.1 °F 51.6 °F 30.1 in SW 9.2 mph 9.2 mph 36 % 0 in
18:09 81 °F 51.4 °F 30.1 in SW 4.6 mph 4.6 mph 36 % 0 in
18:14 80.6 °F 50.4 °F 30.1 in SSW 9.4 mph 9.4 mph 35 % 0 in
18:19 80.4 °F 51.1 °F 30.1 in SW 7.6 mph 7.6 mph 36 % 0 in
18:24 80.6 °F 51.3 °F 30.1 in SW 6.9 mph 6.9 mph 36 % 0 in
18:29 80.4 °F 51.8 °F 30.1 in West 6.9 mph 6.9 mph 37 % 0 in
18:34 80.1 °F 50.7 °F 30.1 in SW 9.2 mph 9.2 mph 36 % 0 in
18:39 79.7 °F 50.4 °F 30.1 in SW 6.9 mph 6.9 mph 36 % 0 in
18:44 80.1 °F 50.7 °F 30.1 in WSW 4.6 mph 4.6 mph 36 % 0 in
18:49 80.2 °F 51.6 °F 30.1 in SW 3.5 mph 3.5 mph 37 % 0 in
18:54 80.2 °F 51.6 °F 30.1 in South 3.5 mph 3.5 mph 37 % 0 in
18:59 79.5 °F 50.2 °F 30.1 in WSW 6.9 mph 6.9 mph 36 % 0 in
19:05 79.5 °F 51.1 °F 30.1 in SW 2 mph 7 mph 37 % 0 in
19:10 79.7 °F 51.3 °F 30.1 in SW 3 mph 5 mph 37 % 0 in
19:15 79.2 °F 50.5 °F 30.1 in SW 5 mph 8 mph 37 % 0 in
19:20 78.8 °F 51.1 °F 30.1 in SW 2 mph 7 mph 38 % 0 in
19:25 78.1 °F 50.4 °F 30.1 in SW 9.2 mph 9.2 mph 38 % 0 in
19:30 77.5 °F 49.8 °F 30.1 in SW 5.8 mph 5.8 mph 38 % 0 in
19:35 77.4 °F 49.8 °F 30.1 in WSW 6.9 mph 6.9 mph 38 % 0 in
19:40 77.4 °F 49.8 °F 30.1 in SW 4.6 mph 4.6 mph 38 % 0 in
19:45 65.5 °F 52.2 °F 30.1 in WSW 2 mph 3 mph 62 % 0 in
19:46 77.2 °F 49.6 °F 30.1 in SW 3.5 mph 3.5 mph 38 % 0 in
19:51 77 °F 50.2 °F 30.1 in SW 4.6 mph 4.6 mph 39 % 0 in
19:55 65.3 °F 52.3 °F 30.1 in WSW 1 mph 3 mph 63 % 0 in
19:56 76.5 °F 50.4 °F 30.1 in SW 5.8 mph 5.8 mph 40 % 0 in
20:01 76.1 °F 50 °F 30.1 in SW 4.6 mph 4.6 mph 40 % 0 in
20:05 65.1 °F 52.5 °F 30.1 in WSW 1 mph 2 mph 64 % 0 in
20:06 75.7 °F 49.6 °F 30.1 in SSW 4.6 mph 4.6 mph 40 % 0 in
20:11 75.6 °F 50.2 °F 30.1 in SSW 6.9 mph 6.9 mph 41 % 0 in
20:15 64.9 °F 52 °F 30.1 in SW 2 mph 2 mph 63 % 0 in
20:16 75 °F 49.6 °F 30.1 in SW 6.9 mph 6.9 mph 41 % 0 in
20:21 74.8 °F 49.6 °F 30.1 in SW 5.8 mph 5.8 mph 41 % 0 in
20:25 64.8 °F 52.3 °F 30.1 in Calm   2 mph 64 % 0 in
20:26 74.3 °F 49.6 °F 30 in SW 4.6 mph 4.6 mph 42 % 0 in
20:31 73.8 °F 49.3 °F 30 in SW 4.6 mph 4.6 mph 42 % 0 in
20:35 64.8 °F 52.3 °F 30.1 in West 1 mph 1 mph 64 % 0 in
20:36 73.4 °F 49.5 °F 30 in SW 8.7 mph 8.7 mph 43 % 0 in
20:41 73.2 °F 50 °F 30.1 in SSW 7.1 mph 7.1 mph 44 % 0 in
20:45 64.8 °F 52.7 °F 30.1 in West 1 mph 1 mph 65 % 0 in
20:46 72.9 °F 50.4 °F 30.1 in SW 5.8 mph 5.8 mph 45 % 0 in
20:51 72.5 °F 49.8 °F 30.1 in West 5.8 mph 5.8 mph 45 % 0 in
20:55 64.6 °F 52.5 °F 30.1 in Calm   1 mph 65 % 0 in
20:56 72.1 °F 50.2 °F 30.1 in West 5.8 mph 5.8 mph 46 % 0 in
21:01 72 °F 50 °F 30.1 in South 3.5 mph 3.5 mph 46 % 0 in
21:05 64.4 °F 52.3 °F 30.1 in WNW 1 mph 1 mph 65 % 0 in
21:06 71.6 °F 50.4 °F 30.1 in SW 5.8 mph 5.8 mph 47 % 0 in
21:11 71.4 °F 50.2 °F 30.1 in SW 5.8 mph 5.8 mph 47 % 0 in
21:15 64 °F 52.3 °F 30.1 in Calm     66 % 0 in
21:16 71.1 °F 50.4 °F 30.1 in SW 5.8 mph 5.8 mph 48 % 0 in
21:21 70.9 °F 50.2 °F 30.1 in SW 3.5 mph 3.5 mph 48 % 0 in
21:25 63.7 °F 52.2 °F 30.1 in Calm     66 % 0 in
21:26 70.7 °F 50 °F 30.1 in WSW 3.5 mph 3.5 mph 48 % 0 in
21:31 70.3 °F 50.4 °F 30.1 in WSW 3.5 mph 3.5 mph 49 % 0 in
21:35 63.9 °F 52.7 °F 30.1 in Calm   1 mph 67 % 0 in
21:36 70.2 °F 50.2 °F 30.1 in SW 3.5 mph 3.5 mph 49 % 0 in
21:41 70 °F 49.8 °F 30.1 in South 3.3 mph 3.3 mph 49 % 0 in
21:45 62.8 °F 51.3 °F 30.1 in NNW 1 mph 2 mph 66 % 0 in
21:46 69.8 °F 50.4 °F 30.1 in South 3.5 mph 3.5 mph 50 % 0 in
21:51 69.4 °F 50.5 °F 30.1 in SSW 2.6 mph 2.6 mph 51 % 0 in
21:55 62.6 °F 51.1 °F 30.1 in WSW 1 mph 2 mph 66 % 0 in
21:56 69.3 °F 50.4 °F 30.1 in WSW 3.5 mph 3.5 mph 51 % 0 in
22:01 69.1 °F 50.7 °F 30.1 in SSW 2.4 mph 2.4 mph 52 % 0 in
22:05 62.8 °F 51.3 °F 30.1 in WSW 1 mph 2 mph 66 % 0 in
22:06 68.9 °F 50.5 °F 30.1 in WSW 2.3 mph 2.3 mph 52 % 0 in
22:07 68.9 °F 50.5 °F 30.1 in West 2.4 mph 2.4 mph 52 % 0 in
22:12 68.9 °F 50.5 °F 30.1 in WSW 1.2 mph   52 % 0 in
22:15 63 °F 51.4 °F 30.1 in WSW 1 mph 2 mph 66 % 0 in
22:17 68.7 °F 50.9 °F 30.1 in West 1.6 mph 1.6 mph 53 % 0 in
22:22 68.5 °F 50.7 °F 30.1 in Calm     53 % 0 in
22:25 63 °F 51.4 °F 30.1 in Calm   1 mph 66 % 0 in
22:27 68.5 °F 50.7 °F 30.1 in SSW 2.3 mph 2.3 mph 53 % 0 in
22:32 68.4 °F 50.5 °F 30.1 in SW 2.9 mph 2.9 mph 53 % 0 in
22:35 63.3 °F 51.8 °F 30.1 in SW 1 mph 1 mph 66 % 0 in
22:37 68.4 °F 50.5 °F 30.1 in SW 3.8 mph 3.8 mph 53 % 0 in
22:42 68.4 °F 50.5 °F 30.1 in SW 2.6 mph 2.6 mph 53 % 0 in
22:45 63.3 °F 51.8 °F 30.1 in Calm   1 mph 66 % 0 in
22:47 68.2 °F 50.4 °F 30.1 in SW 3.5 mph 3.5 mph 53 % 0 in
22:52 68 °F 50.7 °F 30.1 in WSW 2 mph 2 mph 54 % 0 in
22:55 63.3 °F 51.8 °F 30.1 in Calm     66 % 0 in
22:57 68 °F 50.7 °F 30.1 in West 1.2 mph 1.2 mph 54 % 0 in
23:02 67.8 °F 50.5 °F 30.1 in WSW 2.4 mph 2.4 mph 54 % 0 in
23:05 63.1 °F 51.6 °F 30.1 in Calm     66 % 0 in
23:07 67.8 °F 50.5 °F 30.1 in SSW 2.3 mph 2.3 mph 54 % 0 in
23:12 67.6 °F 50.9 °F 30.1 in WSW 2.3 mph 2.3 mph 55 % 0 in
23:15 62.8 °F 51.6 °F 30.1 in Calm     67 % 0 in
23:17 67.5 °F 50.7 °F 30.1 in SW 2.3 mph 2.4 mph 55 % 0 in
23:22 67.3 °F 50.5 °F 30.1 in WSW 2.4 mph 2.4 mph 55 % 0 in
23:25 62.4 °F 51.6 °F 30.1 in Calm   1 mph 68 % 0 in
23:27 67.1 °F 50.9 °F 30.1 in SW 2.3 mph 2.3 mph 56 % 0 in
23:32 67.1 °F 50.9 °F 30.1 in SW 2.3 mph 2.3 mph 56 % 0 in
23:35 61.7 °F 51.1 °F 30.1 in SW 1 mph 2 mph 68 % 0 in
23:37 66.9 °F 51.3 °F 30.1 in WSW 1.2 mph 1.2 mph 57 % 0 in
23:42 66.7 °F 51.1 °F 30.1 in WSW 2.4 mph 2.9 mph 57 % 0 in
23:45 61.9 °F 51.6 °F 30.1 in Calm     69 % 0 in
23:47 66.7 °F 51.1 °F 30.1 in West 2.9 mph 2.9 mph 57 % 0 in
23:52 66.7 °F 51.4 °F 30.1 in SSW 2.3 mph 2.3 mph 58 % 0 in
23:55 61.9 °F 51.6 °F 30.1 in Calm     69 % 0 in
23:57 66.6 °F 51.3 °F 30.1 in SSW 2.3 mph 2.3 mph 58 % 0 in
Meteo Sesrovires
Elogis d' Weather Underground - 3.75 mb

Guio original per  Jim McMurry - jmcmurry@mwt.net Adaptat per a la plantilla per  Wim van der Kuil - Leuven-Template.eu

Trobareu la nostra informacio del temps tambe a:

Weather Underground

AWEKAS